createdAt,value
2022-12-18T00:03:49.840Z,44.03
2022-12-18T00:08:33.632Z,48.73
2022-12-18T00:13:17.184Z,45.50
2022-12-18T00:18:00.994Z,42.93
2022-12-18T00:22:45.890Z,46.63
2022-12-18T00:27:29.453Z,44.03
2022-12-18T00:32:12.904Z,51.20
2022-12-18T00:36:56.896Z,47.80
2022-12-18T00:41:59.016Z,42.03
2022-12-18T00:46:42.922Z,41.13
2022-12-18T00:51:26.915Z,41.20
2022-12-18T00:56:10.363Z,44.97
2022-12-18T01:00:55.896Z,47.17
2022-12-18T01:05:41.978Z,45.67
2022-12-18T01:10:26.667Z,44.47
2022-12-18T01:15:12.201Z,42.37
2022-12-18T01:19:57.098Z,45.93
2022-12-18T01:24:40.571Z,44.90
2022-12-18T01:29:24.089Z,43.90
2022-12-18T01:34:08.103Z,42.57
2022-12-18T01:38:54.257Z,36.57
2022-12-18T01:43:50.907Z,43.03
2022-12-18T01:48:34.418Z,47.90
2022-12-18T01:53:21.299Z,46.10
2022-12-18T01:58:07.062Z,61.47
2022-12-18T02:02:51.473Z,47.40
2022-12-18T02:07:45.322Z,41.47
2022-12-18T02:12:36.503Z,43.37
2022-12-18T02:17:24.445Z,37.77
2022-12-18T02:22:20.885Z,39.63
2022-12-18T02:27:08.207Z,43.73
2022-12-18T02:31:56.258Z,47.63
2022-12-18T02:36:43.361Z,43.27
2022-12-18T02:41:27.444Z,45.60
2022-12-18T02:46:35.485Z,44.30
2022-12-18T02:51:26.152Z,44.93
2022-12-18T02:56:15.868Z,45.40
2022-12-18T03:01:04.438Z,48.50
2022-12-18T03:05:52.930Z,50.53
2022-12-18T03:10:41.789Z,48.60
2022-12-18T03:15:29.642Z,48.23
2022-12-18T03:20:16.738Z,50.30
2022-12-18T03:25:05.225Z,53.03
2022-12-18T03:29:53.529Z,50.20
2022-12-18T03:34:40.258Z,55.17
2022-12-18T03:39:23.837Z,59.00
2022-12-18T03:44:13.871Z,68.83
2022-12-18T03:49:04.100Z,70.40
2022-12-18T03:53:53.436Z,58.27
2022-12-18T03:58:40.729Z,58.77
2022-12-18T04:03:28.578Z,60.70
2022-12-18T04:08:12.492Z,57.33
2022-12-18T04:12:58.931Z,49.77
2022-12-18T04:17:50.072Z,55.13
2022-12-18T04:22:35.009Z,52.77
2022-12-18T04:27:18.449Z,54.73
2022-12-18T04:32:01.894Z,50.37
2022-12-18T04:36:45.313Z,51.20
2022-12-18T04:41:30.469Z,50.40
2022-12-18T04:46:13.953Z,59.87
2022-12-18T04:50:57.412Z,56.47
2022-12-18T04:55:41.116Z,50.30
2022-12-18T05:00:25.979Z,52.30
2022-12-18T05:05:10.615Z,46.87
2022-12-18T05:09:54.004Z,48.43
2022-12-18T05:14:37.823Z,48.57
2022-12-18T05:19:23.670Z,38.33
2022-12-18T05:24:07.764Z,43.10
2022-12-18T05:28:51.529Z,38.53
2022-12-18T05:33:37.046Z,47.10
2022-12-18T05:38:23.030Z,45.37
2022-12-18T05:43:06.451Z,36.53
2022-12-18T05:47:49.897Z,41.17
2022-12-18T05:52:33.383Z,41.33
2022-12-18T05:57:18.268Z,36.20
2022-12-18T06:02:01.802Z,35.53
2022-12-18T06:06:45.394Z,37.10
2022-12-18T06:11:29.734Z,36.40
2022-12-18T06:16:14.678Z,33.63
2022-12-18T06:20:58.430Z,34.80
2022-12-18T06:25:42.117Z,38.17
2022-12-18T06:30:25.823Z,34.70
2022-12-18T06:35:11.425Z,38.37
2022-12-18T06:39:55.056Z,36.33
2022-12-18T06:44:38.521Z,32.87
2022-12-18T06:49:25.034Z,34.93
2022-12-18T06:54:12.334Z,29.73
2022-12-18T06:58:56.145Z,35.40
2022-12-18T07:03:40.605Z,31.07
2022-12-18T07:08:24.631Z,32.47
2022-12-18T07:13:09.492Z,36.60
2022-12-18T07:17:52.893Z,31.83
2022-12-18T07:22:36.392Z,36.53
2022-12-18T07:27:20.516Z,34.13
2022-12-18T07:32:05.554Z,37.93
2022-12-18T07:36:49.355Z,39.33
2022-12-18T07:41:32.858Z,37.30
2022-12-18T07:46:17.938Z,37.33
2022-12-18T07:51:03.879Z,37.50
2022-12-18T07:56:25.079Z,39.53
2022-12-18T08:00:51.960Z,38.17
2022-12-18T08:05:36.195Z,33.63
2022-12-18T08:10:21.700Z,31.27
2022-12-18T08:15:05.451Z,37.97
2022-12-18T08:19:49.902Z,40.83
2022-12-18T08:24:33.360Z,43.20
2022-12-18T08:29:21.677Z,38.57
2022-12-18T08:34:05.603Z,36.67
2022-12-18T08:38:50.129Z,40.03
2022-12-18T08:43:51.016Z,34.70
2022-12-18T08:48:36.045Z,32.97
2022-12-18T08:53:19.531Z,37.50
2022-12-18T08:58:03.729Z,37.07
2022-12-18T09:02:47.419Z,36.60
2022-12-18T09:07:35.132Z,38.70
2022-12-18T09:12:18.641Z,30.07
2022-12-18T09:17:02.209Z,33.63
2022-12-18T09:21:48.264Z,34.30
2022-12-18T09:26:33.692Z,35.37
2022-12-18T09:31:18.208Z,38.23
2022-12-18T09:36:12.731Z,33.20
2022-12-18T09:41:02.527Z,32.13
2022-12-18T09:45:53.354Z,27.53
2022-12-18T09:50:41.169Z,27.67
2022-12-18T09:55:36.680Z,27.53
2022-12-18T10:00:23.073Z,30.83
2022-12-18T10:05:11.777Z,32.57
2022-12-18T10:10:05.277Z,28.60
2022-12-18T10:14:55.798Z,32.80
2022-12-18T10:19:50.465Z,29.73
2022-12-18T10:24:43.308Z,26.83
2022-12-18T10:29:28.538Z,24.43
2022-12-18T10:34:12.437Z,26.47
2022-12-18T10:38:56.342Z,28.67
2022-12-18T10:43:42.134Z,26.57
2022-12-18T10:48:27.553Z,26.43
2022-12-18T10:53:21.904Z,28.37
2022-12-18T10:58:26.923Z,24.47
2022-12-18T11:03:32.868Z,25.13
2022-12-18T11:08:24.891Z,40.70
2022-12-18T11:13:14.396Z,36.33
2022-12-18T11:17:58.550Z,25.40
2022-12-18T11:22:43.413Z,54.70
2022-12-18T11:27:27.863Z,100.80
2022-12-18T11:32:35.339Z,204.60
2022-12-18T11:37:21.033Z,89.17
2022-12-18T11:42:14.619Z,131.13
2022-12-18T11:47:02.923Z,33.07
2022-12-18T11:51:52.567Z,52.20
2022-12-18T11:56:42.893Z,38.53
2022-12-18T12:01:44.281Z,69.10
2022-12-18T12:06:38.345Z,59.37
2022-12-18T12:11:31.420Z,81.13
2022-12-18T12:16:20.456Z,38.70
2022-12-18T12:21:12.810Z,34.37
2022-12-18T12:26:02.441Z,33.90
2022-12-18T12:30:57.569Z,31.50
2022-12-18T12:35:50.103Z,37.53
2022-12-18T12:40:52.621Z,40.23
2022-12-18T12:45:44.666Z,37.77
2022-12-18T12:50:30.169Z,36.40
2022-12-18T12:55:19.724Z,34.17
2022-12-18T13:00:11.624Z,32.27
2022-12-18T13:05:01.910Z,29.60
2022-12-18T13:10:17.832Z,35.03
2022-12-18T13:15:26.033Z,33.43
2022-12-18T13:20:14.111Z,35.70
2022-12-18T13:24:59.522Z,27.37
2022-12-18T13:29:45.659Z,38.63
2022-12-18T13:34:32.993Z,33.97
2022-12-18T13:39:35.331Z,36.53
2022-12-18T13:44:35.885Z,31.13
2022-12-18T13:49:26.114Z,30.50
2022-12-18T13:54:22.517Z,27.60
2022-12-18T13:59:12.438Z,35.23
2022-12-18T14:04:11.610Z,36.43
2022-12-18T14:08:55.719Z,34.47
2022-12-18T14:13:44.584Z,31.13
2022-12-18T14:18:33.182Z,30.57
2022-12-18T14:23:29.922Z,27.83
2022-12-18T14:28:18.177Z,33.33
2022-12-18T14:33:08.336Z,36.20
2022-12-18T14:37:52.618Z,38.73
2022-12-18T14:42:36.443Z,38.13
2022-12-18T14:47:21.119Z,36.13
2022-12-18T14:52:08.567Z,32.50
2022-12-18T14:57:00.364Z,33.83
2022-12-18T15:01:50.820Z,41.33
2022-12-18T15:06:37.507Z,37.67
2022-12-18T15:11:50.976Z,29.87
2022-12-18T15:16:37.445Z,39.47
2022-12-18T15:21:23.633Z,38.30
2022-12-18T15:26:10.301Z,33.17
2022-12-18T15:31:26.562Z,34.60
2022-12-18T15:36:14.868Z,37.10
2022-12-18T15:41:01.481Z,39.67
2022-12-18T15:45:46.972Z,42.23
2022-12-18T15:50:33.694Z,39.20
2022-12-18T15:55:38.386Z,41.93
2022-12-18T16:00:25.805Z,43.37
2022-12-18T16:05:18.600Z,46.77
2022-12-18T16:10:04.961Z,42.70
2022-12-18T16:14:54.537Z,42.80
2022-12-18T16:19:40.287Z,52.00
2022-12-18T16:24:26.240Z,49.40
2022-12-18T16:29:14.232Z,44.57
2022-12-18T16:34:15.831Z,43.77
2022-12-18T16:39:02.268Z,47.77
2022-12-18T16:43:53.049Z,48.83
2022-12-18T16:48:41.544Z,49.00
2022-12-18T16:53:26.925Z,58.00
2022-12-18T16:58:18.596Z,60.50
2022-12-18T17:03:04.634Z,56.17
2022-12-18T17:07:51.939Z,61.80
2022-12-18T17:12:38.089Z,58.67
2022-12-18T17:17:24.188Z,57.10
2022-12-18T17:22:10.233Z,54.47
2022-12-18T17:26:57.926Z,54.00
2022-12-18T17:31:44.603Z,53.83
2022-12-18T17:36:31.422Z,59.20
2022-12-18T17:41:17.433Z,63.20
2022-12-18T17:46:07.491Z,62.13
2022-12-18T17:50:54.501Z,62.03
2022-12-18T17:55:39.427Z,69.73
2022-12-18T18:00:32.531Z,64.90
2022-12-18T18:05:21.374Z,64.00
2022-12-18T18:10:06.980Z,58.00
2022-12-18T18:14:52.058Z,65.40
2022-12-18T18:19:37.205Z,56.77
2022-12-18T18:24:26.720Z,61.53
2022-12-18T18:29:17.246Z,58.73
2022-12-18T18:34:05.181Z,61.70
2022-12-18T18:38:50.817Z,66.97
2022-12-18T18:43:37.991Z,59.77
2022-12-18T18:48:24.358Z,60.77
2022-12-18T18:53:11.279Z,58.20
2022-12-18T18:57:56.609Z,59.40
2022-12-18T19:02:43.547Z,64.70
2022-12-18T19:07:30.519Z,58.00
2022-12-18T19:12:32.912Z,63.27
2022-12-18T19:17:17.730Z,70.07
2022-12-18T19:22:04.675Z,63.13
2022-12-18T19:26:50.759Z,66.90
2022-12-18T19:31:36.639Z,68.47
2022-12-18T19:36:24.009Z,69.53
2022-12-18T19:41:14.044Z,67.70
2022-12-18T19:46:01.131Z,71.63
2022-12-18T19:51:08.816Z,66.20
2022-12-18T19:55:53.539Z,67.33
2022-12-18T20:00:40.382Z,69.70
2022-12-18T20:05:29.125Z,65.27
2022-12-18T20:10:17.998Z,66.83
2022-12-18T20:15:14.989Z,68.87
2022-12-18T20:20:15.749Z,67.83
2022-12-18T20:25:03.856Z,65.23
2022-12-18T20:29:49.248Z,75.03
2022-12-18T20:34:34.306Z,68.63
2022-12-18T20:39:20.863Z,67.60
2022-12-18T20:44:07.293Z,66.70
2022-12-18T20:48:58.505Z,62.33
2022-12-18T20:53:43.646Z,59.60
2022-12-18T20:58:29.610Z,61.97
2022-12-18T21:03:13.984Z,60.63
2022-12-18T21:07:59.142Z,64.00
2022-12-18T21:13:01.690Z,69.90
2022-12-18T21:17:50.118Z,63.77
2022-12-18T21:22:34.032Z,64.60
2022-12-18T21:27:18.330Z,68.93
2022-12-18T21:32:02.126Z,69.63
2022-12-18T21:36:48.301Z,68.83
2022-12-18T21:41:49.286Z,66.37
2022-12-18T21:46:35.640Z,68.80
2022-12-18T21:51:19.233Z,63.33
2022-12-18T21:56:04.930Z,65.27
2022-12-18T22:00:48.880Z,73.50
2022-12-18T22:05:32.469Z,60.13
2022-12-18T22:10:16.101Z,68.80
2022-12-18T22:15:00.972Z,70.83
2022-12-18T22:19:44.507Z,67.77
2022-12-18T22:24:29.482Z,69.03
2022-12-18T22:29:33.627Z,65.80
2022-12-18T22:34:23.013Z,66.27
2022-12-18T22:39:09.010Z,71.67
2022-12-18T22:43:52.538Z,59.17
2022-12-18T22:48:36.561Z,65.20
2022-12-18T22:53:22.742Z,65.90
2022-12-18T22:58:06.181Z,70.83
2022-12-18T23:02:53.230Z,66.60
2022-12-18T23:07:39.672Z,58.80
2022-12-18T23:12:25.026Z,60.77
2022-12-18T23:17:08.631Z,64.10
2022-12-18T23:21:52.530Z,57.30
2022-12-18T23:26:38.321Z,71.20
2022-12-18T23:31:25.395Z,57.70
2022-12-18T23:36:10.041Z,60.10
2022-12-18T23:40:54.223Z,65.80
2022-12-18T23:45:40.292Z,63.70
2022-12-18T23:50:29.747Z,64.83
2022-12-18T23:55:13.687Z,65.37
2022-12-18T23:59:57.149Z,56.23
